sensor_id;sensor_type;location;lat;lon;timestamp;pressure;altitude;pressure_sealevel;temperature;humidity
16690;BME280;8458;52.220;9.884;2023-03-19T00:02:20;100419.13;;;11.98;95.40
16690;BME280;8458;52.220;9.884;2023-03-19T00:04:46;100427.75;;;11.96;95.52
16690;BME280;8458;52.220;9.884;2023-03-19T00:07:13;100427.75;;;11.96;95.68
16690;BME280;8458;52.220;9.884;2023-03-19T00:09:41;100427.75;;;11.96;95.20
16690;BME280;8458;52.220;9.884;2023-03-19T00:12:08;100430.47;;;11.91;95.47
16690;BME280;8458;52.220;9.884;2023-03-19T00:14:35;100436.03;;;11.91;95.86
16690;BME280;8458;52.220;9.884;2023-03-19T00:17:02;100431.63;;;11.85;95.91
16690;BME280;8458;52.220;9.884;2023-03-19T00:19:29;100436.06;;;11.86;95.58
16690;BME280;8458;52.220;9.884;2023-03-19T00:21:55;100437.19;;;11.85;95.58
16690;BME280;8458;52.220;9.884;2023-03-19T00:24:23;100436.88;;;11.81;96.00
16690;BME280;8458;52.220;9.884;2023-03-19T00:26:50;100434.94;;;11.77;96.56
16690;BME280;8458;52.220;9.884;2023-03-19T00:29:16;100438.31;;;11.79;96.83
16690;BME280;8458;52.220;9.884;2023-03-19T00:31:43;100435.50;;;11.84;96.67
16690;BME280;8458;52.220;9.884;2023-03-19T00:34:10;100434.38;;;11.80;97.23
16690;BME280;8458;52.220;9.884;2023-03-19T00:36:37;100437.47;;;11.83;97.06
16690;BME280;8458;52.220;9.884;2023-03-19T00:39:04;100439.94;;;11.80;97.10
16690;BME280;8458;52.220;9.884;2023-03-19T00:41:31;100436.91;;;11.76;97.00
16690;BME280;8458;52.220;9.884;2023-03-19T00:44:00;100432.72;;;11.74;96.96
16690;BME280;8458;52.220;9.884;2023-03-19T00:46:27;100427.75;;;11.76;96.76
16690;BME280;8458;52.220;9.884;2023-03-19T00:48:54;100429.38;;;11.77;96.17
16690;BME280;8458;52.220;9.884;2023-03-19T00:51:23;100426.34;;;11.73;96.01
16690;BME280;8458;52.220;9.884;2023-03-19T00:53:50;100431.06;;;11.78;95.47
16690;BME280;8458;52.220;9.884;2023-03-19T00:56:18;100434.94;;;11.77;95.57
16690;BME280;8458;52.220;9.884;2023-03-19T00:58:45;100428.84;;;11.75;95.02
16690;BME280;8458;52.220;9.884;2023-03-19T01:01:14;100430.50;;;11.71;94.76
16690;BME280;8458;52.220;9.884;2023-03-19T01:03:41;100426.91;;;11.65;94.47
16690;BME280;8458;52.220;9.884;2023-03-19T01:06:08;100425.78;;;11.66;94.13
16690;BME280;8458;52.220;9.884;2023-03-19T01:08:35;100427.75;;;11.65;94.13
16690;BME280;8458;52.220;9.884;2023-03-19T01:11:07;100421.06;;;11.61;93.92
16690;BME280;8458;52.220;9.884;2023-03-19T01:13:33;100439.41;;;11.62;93.48
16690;BME280;8458;52.220;9.884;2023-03-19T01:16:03;100433.03;;;11.62;93.25
16690;BME280;8458;52.220;9.884;2023-03-19T01:18:29;100431.63;;;11.59;93.21
16690;BME280;8458;52.220;9.884;2023-03-19T01:20:56;100426.06;;;11.49;92.49
16690;BME280;8458;52.220;9.884;2023-03-19T01:23:23;100438.28;;;11.43;92.16
16690;BME280;8458;52.220;9.884;2023-03-19T01:25:50;100426.91;;;11.44;91.98
16690;BME280;8458;52.220;9.884;2023-03-19T01:28:17;100429.97;;;11.38;91.74
16690;BME280;8458;52.220;9.884;2023-03-19T01:30:44;100422.75;;;11.42;91.70
16690;BME280;8458;52.220;9.884;2023-03-19T01:33:11;100429.41;;;11.36;91.45
16690;BME280;8458;52.220;9.884;2023-03-19T01:35:37;100438.25;;;11.27;91.59
16690;BME280;8458;52.220;9.884;2023-03-19T01:38:04;100428.00;;;11.28;91.28
16690;BME280;8458;52.220;9.884;2023-03-19T01:40:32;100428.25;;;11.21;91.35
16690;BME280;8458;52.220;9.884;2023-03-19T01:43:13;100426.59;;;11.25;90.99
16690;BME280;8458;52.220;9.884;2023-03-19T01:45:42;100431.84;;;11.17;90.88
16690;BME280;8458;52.220;9.884;2023-03-19T01:48:16;100432.97;;;11.10;91.01
16690;BME280;8458;52.220;9.884;2023-03-19T01:50:44;100420.75;;;11.06;90.35
16690;BME280;8458;52.220;9.884;2023-03-19T01:53:12;100418.81;;;11.02;90.32
16690;BME280;8458;52.220;9.884;2023-03-19T01:55:41;100427.69;;;11.04;89.95
16690;BME280;8458;52.220;9.884;2023-03-19T01:58:08;100419.34;;;10.99;89.77
16690;BME280;8458;52.220;9.884;2023-03-19T02:00:37;100422.13;;;10.99;89.68
16690;BME280;8458;52.220;9.884;2023-03-19T02:03:05;100428.22;;;10.96;89.77
16690;BME280;8458;52.220;9.884;2023-03-19T02:05:32;100433.75;;;10.90;90.49
16690;BME280;8458;52.220;9.884;2023-03-19T02:08:03;100432.91;;;10.90;91.17
16690;BME280;8458;52.220;9.884;2023-03-19T02:10:31;100427.91;;;10.82;90.37
16690;BME280;8458;52.220;9.884;2023-03-19T02:12:58;100432.06;;;10.79;90.70
16690;BME280;8458;52.220;9.884;2023-03-19T02:15:24;100432.59;;;10.76;90.90
16690;BME280;8458;52.220;9.884;2023-03-19T02:17:52;100433.16;;;10.78;90.71
16690;BME280;8458;52.220;9.884;2023-03-19T02:20:24;100427.59;;;10.73;90.43
16690;BME280;8458;52.220;9.884;2023-03-19T02:22:59;100422.88;;;10.73;90.47
16690;BME280;8458;52.220;9.884;2023-03-19T02:25:32;100428.13;;;10.70;91.38
16690;BME280;8458;52.220;9.884;2023-03-19T02:28:04;100425.34;;;10.65;92.47
16690;BME280;8458;52.220;9.884;2023-03-19T02:30:34;100423.41;;;10.65;92.34
16690;BME280;8458;52.220;9.884;2023-03-19T02:33:00;100425.31;;;10.59;92.32
16690;BME280;8458;52.220;9.884;2023-03-19T02:35:29;100410.63;;;10.59;91.88
16690;BME280;8458;52.220;9.884;2023-03-19T02:37:57;100422.53;;;10.59;92.07
16690;BME280;8458;52.220;9.884;2023-03-19T02:40:25;100419.75;;;10.54;91.93
16690;BME280;8458;52.220;9.884;2023-03-19T02:42:52;100422.81;;;10.53;92.59
16690;BME280;8458;52.220;9.884;2023-03-19T02:45:20;100426.97;;;10.55;92.73
16690;BME280;8458;52.220;9.884;2023-03-19T02:47:46;100430.28;;;10.52;92.86
16690;BME280;8458;52.220;9.884;2023-03-19T02:50:13;100433.06;;;10.52;92.60
16690;BME280;8458;52.220;9.884;2023-03-19T02:52:40;100429.69;;;10.45;93.10
16690;BME280;8458;52.220;9.884;2023-03-19T02:55:07;100421.44;;;10.50;93.44
16690;BME280;8458;52.220;9.884;2023-03-19T02:57:33;100428.06;;;10.49;94.41
16690;BME280;8458;52.220;9.884;2023-03-19T03:00:00;100425.84;;;10.46;94.88
16690;BME280;8458;52.220;9.884;2023-03-19T03:02:28;100438.56;;;10.42;94.82
16690;BME280;8458;52.220;9.884;2023-03-19T03:04:55;100434.69;;;10.43;94.51
16690;BME280;8458;52.220;9.884;2023-03-19T03:07:21;100432.47;;;10.45;94.12
16690;BME280;8458;52.220;9.884;2023-03-19T03:09:48;100436.91;;;10.41;94.13
16690;BME280;8458;52.220;9.884;2023-03-19T03:12:14;100429.69;;;10.45;94.03
16690;BME280;8458;52.220;9.884;2023-03-19T03:14:41;100439.69;;;10.46;94.15
16690;BME280;8458;52.220;9.884;2023-03-19T03:17:07;100430.28;;;10.47;94.31
16690;BME280;8458;52.220;9.884;2023-03-19T03:19:35;100438.34;;;10.49;94.35
16690;BME280;8458;52.220;9.884;2023-03-19T03:22:02;100440.25;;;10.48;94.47
16690;BME280;8458;52.220;9.884;2023-03-19T03:24:30;100440.56;;;10.52;94.42
16690;BME280;8458;52.220;9.884;2023-03-19T03:26:56;100434.16;;;10.51;94.25
16690;BME280;8458;52.220;9.884;2023-03-19T03:29:22;100440.84;;;10.50;94.25
16690;BME280;8458;52.220;9.884;2023-03-19T03:31:49;100438.88;;;10.46;94.74
16690;BME280;8458;52.220;9.884;2023-03-19T03:34:16;100446.38;;;10.50;95.03
16690;BME280;8458;52.220;9.884;2023-03-19T03:36:44;100439.69;;;10.46;95.31
16690;BME280;8458;52.220;9.884;2023-03-19T03:39:11;100439.69;;;10.46;95.18
16690;BME280;8458;52.220;9.884;2023-03-19T03:41:38;100439.16;;;10.44;94.68
16690;BME280;8458;52.220;9.884;2023-03-19T03:44:05;100433.88;;;10.43;94.52
16690;BME280;8458;52.220;9.884;2023-03-19T03:46:32;100436.91;;;10.41;94.57
16690;BME280;8458;52.220;9.884;2023-03-19T03:48:59;100441.88;;;10.39;94.27
16690;BME280;8458;52.220;9.884;2023-03-19T03:51:25;100441.84;;;10.34;94.28
16690;BME280;8458;52.220;9.884;2023-03-19T03:53:53;100441.59;;;10.35;94.45
16690;BME280;8458;52.220;9.884;2023-03-19T03:56:19;100446.22;;;10.30;95.34
16690;BME280;8458;52.220;9.884;2023-03-19T03:58:46;100449.06;;;10.35;95.67
16690;BME280;8458;52.220;9.884;2023-03-19T04:01:14;100446.22;;;10.30;95.68
16690;BME280;8458;52.220;9.884;2023-03-19T04:03:40;100449.59;;;10.32;95.85
16690;BME280;8458;52.220;9.884;2023-03-19T04:06:08;100441.53;;;10.30;96.04
16690;BME280;8458;52.220;9.884;2023-03-19T04:08:35;100444.56;;;10.29;96.04
16690;BME280;8458;52.220;9.884;2023-03-19T04:11:07;100441.22;;;10.27;96.09
16690;BME280;8458;52.220;9.884;2023-03-19T04:13:34;100445.66;;;10.28;95.96
16690;BME280;8458;52.220;9.884;2023-03-19T04:16:01;100448.97;;;10.19;95.89
16690;BME280;8458;52.220;9.884;2023-03-19T04:18:27;100438.97;;;10.18;95.90
16690;BME280;8458;52.220;9.884;2023-03-19T04:20:54;100432.88;;;10.16;95.71
16690;BME280;8458;52.220;9.884;2023-03-19T04:23:21;100435.38;;;10.18;95.79
16690;BME280;8458;52.220;9.884;2023-03-19T04:25:48;100439.53;;;10.20;95.57
16690;BME280;8458;52.220;9.884;2023-03-19T04:28:16;100434.78;;;10.16;95.12
16690;BME280;8458;52.220;9.884;2023-03-19T04:30:42;100442.28;;;10.15;94.84
16690;BME280;8458;52.220;9.884;2023-03-19T04:33:09;100433.88;;;10.05;95.25
16690;BME280;8458;52.220;9.884;2023-03-19T04:35:36;100427.25;;;10.06;95.30
16690;BME280;8458;52.220;9.884;2023-03-19T04:38:03;100431.69;;;10.07;95.89
16690;BME280;8458;52.220;9.884;2023-03-19T04:40:29;100429.72;;;10.02;96.39
16690;BME280;8458;52.220;9.884;2023-03-19T04:42:56;100431.66;;;10.02;96.31
16690;BME280;8458;52.220;9.884;2023-03-19T04:45:24;100427.78;;;10.03;96.62
16690;BME280;8458;52.220;9.884;2023-03-19T04:47:51;100436.66;;;10.05;97.05
16690;BME280;8458;52.220;9.884;2023-03-19T04:50:18;100433.59;;;10.01;96.16
16690;BME280;8458;52.220;9.884;2023-03-19T04:52:44;100425.00;;;9.98;96.37
16690;BME280;8458;52.220;9.884;2023-03-19T04:55:11;100427.44;;;9.94;96.86
16690;BME280;8458;52.220;9.884;2023-03-19T04:57:37;100434.38;;;9.92;97.45
16690;BME280;8458;52.220;9.884;2023-03-19T05:00:04;100429.53;;;9.77;98.22
16690;BME280;8458;52.220;9.884;2023-03-19T05:02:32;100435.97;;;9.82;98.57
16690;BME280;8458;52.220;9.884;2023-03-19T05:04:59;100436.44;;;9.74;98.73
16690;BME280;8458;52.220;9.884;2023-03-19T05:07:25;100445.06;;;9.78;99.26
16690;BME280;8458;52.220;9.884;2023-03-19T05:09:52;100449.75;;;9.77;99.83
16690;BME280;8458;52.220;9.884;2023-03-19T05:12:18;100452.00;;;9.80;99.93
16690;BME280;8458;52.220;9.884;2023-03-19T05:14:45;100453.41;;;9.83;99.99
16690;BME280;8458;52.220;9.884;2023-03-19T05:17:12;100450.38;;;9.84;100.00
16690;BME280;8458;52.220;9.884;2023-03-19T05:19:41;100449.31;;;9.91;100.00
16690;BME280;8458;52.220;9.884;2023-03-19T05:22:08;100451.25;;;9.90;100.00
16690;BME280;8458;52.220;9.884;2023-03-19T05:24:34;100443.78;;;9.91;100.00
16690;BME280;8458;52.220;9.884;2023-03-19T05:27:01;100448.25;;;9.97;99.86
16690;BME280;8458;52.220;9.884;2023-03-19T05:29:28;100453.78;;;9.97;99.55
16690;BME280;8458;52.220;9.884;2023-03-19T05:31:54;100450.47;;;9.95;99.21
16690;BME280;8458;52.220;9.884;2023-03-19T05:34:20;100456.00;;;9.95;99.40
16690;BME280;8458;52.220;9.884;2023-03-19T05:36:48;100455.38;;;9.87;99.12
16690;BME280;8458;52.220;9.884;2023-03-19T05:39:15;100455.38;;;9.87;99.12
16690;BME280;8458;52.220;9.884;2023-03-19T05:41:41;100453.16;;;9.90;98.86
16690;BME280;8458;52.220;9.884;2023-03-19T05:44:08;100455.94;;;9.90;98.85
16690;BME280;8458;52.220;9.884;2023-03-19T05:46:34;100458.16;;;9.87;98.93
16690;BME280;8458;52.220;9.884;2023-03-19T05:49:01;100465.38;;;9.89;98.41
16690;BME280;8458;52.220;9.884;2023-03-19T05:51:28;100463.44;;;9.89;98.06
16690;BME280;8458;52.220;9.884;2023-03-19T05:53:56;100463.69;;;9.87;97.96
16690;BME280;8458;52.220;9.884;2023-03-19T05:56:22;100459.78;;;9.83;98.39
16690;BME280;8458;52.220;9.884;2023-03-19T05:58:49;100465.09;;;9.90;98.77
16690;BME280;8458;52.220;9.884;2023-03-19T06:01:16;100464.25;;;9.90;99.10
16690;BME280;8458;52.220;9.884;2023-03-19T06:03:42;100463.16;;;9.91;99.37
16690;BME280;8458;52.220;9.884;2023-03-19T06:06:08;100466.47;;;9.93;99.68
16690;BME280;8458;52.220;9.884;2023-03-19T06:08:36;100445.75;;;9.95;99.42
16690;BME280;8458;52.220;9.884;2023-03-19T06:11:04;100456.81;;;9.95;99.49
16690;BME280;8458;52.220;9.884;2023-03-19T06:13:31;100455.19;;;9.99;99.44
16690;BME280;8458;52.220;9.884;2023-03-19T06:15:57;100463.81;;;10.03;99.47
16690;BME280;8458;52.220;9.884;2023-03-19T06:18:24;100473.19;;;10.02;99.68
16690;BME280;8458;52.220;9.884;2023-03-19T06:20:50;100474.34;;;10.06;99.67
16690;BME280;8458;52.220;9.884;2023-03-19T06:23:17;100469.34;;;10.03;99.23
16690;BME280;8458;52.220;9.884;2023-03-19T06:25:44;100475.16;;;10.07;98.81
16690;BME280;8458;52.220;9.884;2023-03-19T06:28:12;100479.06;;;10.05;99.13
16690;BME280;8458;52.220;9.884;2023-03-19T06:30:39;100491.50;;;10.03;99.46
16690;BME280;8458;52.220;9.884;2023-03-19T06:33:05;100491.75;;;10.01;100.00
16690;BME280;8458;52.220;9.884;2023-03-19T06:35:32;100498.72;;;10.04;100.00
16690;BME280;8458;52.220;9.884;2023-03-19T06:37:59;100503.66;;;10.02;100.00
16690;BME280;8458;52.220;9.884;2023-03-19T06:40:25;100505.91;;;10.05;100.00
16690;BME280;8458;52.220;9.884;2023-03-19T06:42:52;100508.41;;;10.07;100.00
16690;BME280;8458;52.220;9.884;2023-03-19T06:45:20;100503.47;;;10.09;100.00
16690;BME280;8458;52.220;9.884;2023-03-19T06:47:46;100511.44;;;10.05;100.00
16690;BME280;8458;52.220;9.884;2023-03-19T06:50:15;100507.59;;;10.06;100.00
16690;BME280;8458;52.220;9.884;2023-03-19T06:52:42;100514.31;;;10.15;100.00
16690;BME280;8458;52.220;9.884;2023-03-19T06:55:09;100520.66;;;10.11;100.00
16690;BME280;8458;52.220;9.884;2023-03-19T06:57:36;100517.59;;;10.07;100.00
16690;BME280;8458;52.220;9.884;2023-03-19T07:00:04;100522.00;;;10.08;100.00
16690;BME280;8458;52.220;9.884;2023-03-19T07:02:32;100521.41;;;10.01;100.00
16690;BME280;8458;52.220;9.884;2023-03-19T07:04:59;100517.53;;;10.02;100.00
16690;BME280;8458;52.220;9.884;2023-03-19T07:07:26;100525.88;;;10.07;100.00
16690;BME280;8458;52.220;9.884;2023-03-19T07:09:52;100522.09;;;10.18;100.00
16690;BME280;8458;52.220;9.884;2023-03-19T07:12:19;100532.09;;;10.25;100.00
16690;BME280;8458;52.220;9.884;2023-03-19T07:14:45;100527.09;;;10.21;100.00
16690;BME280;8458;52.220;9.884;2023-03-19T07:17:12;100535.13;;;10.18;100.00
16690;BME280;8458;52.220;9.884;2023-03-19T07:19:39;100534.59;;;10.26;100.00
16690;BME280;8458;52.220;9.884;2023-03-19T07:22:06;100547.66;;;10.31;100.00
16690;BME280;8458;52.220;9.884;2023-03-19T07:24:33;100539.09;;;10.32;100.00
16690;BME280;8458;52.220;9.884;2023-03-19T07:26:59;100544.41;;;10.39;100.00
16690;BME280;8458;52.220;9.884;2023-03-19T07:29:26;100542.25;;;10.41;100.00
16690;BME280;8458;52.220;9.884;2023-03-19T07:31:52;100549.22;;;10.49;100.00
16690;BME280;8458;52.220;9.884;2023-03-19T07:34:19;100550.59;;;10.51;100.00
16690;BME280;8458;52.220;9.884;2023-03-19T07:36:47;100555.09;;;10.63;100.00
16690;BME280;8458;52.220;9.884;2023-03-19T07:39:13;100553.47;;;10.72;100.00
16690;BME280;8458;52.220;9.884;2023-03-19T07:41:40;100551.03;;;10.81;100.00
16690;BME280;8458;52.220;9.884;2023-03-19T07:44:08;100544.41;;;10.87;100.00
16690;BME280;8458;52.220;9.884;2023-03-19T07:46:36;100541.66;;;10.92;100.00
16690;BME280;8458;52.220;9.884;2023-03-19T07:49:02;100536.69;;;10.99;100.00
16690;BME280;8458;52.220;9.884;2023-03-19T07:51:28;100536.44;;;11.06;100.00
16690;BME280;8458;52.220;9.884;2023-03-19T07:53:57;100551.44;;;11.10;100.00
16690;BME280;8458;52.220;9.884;2023-03-19T07:56:23;100574.19;;;11.12;100.00
16690;BME280;8458;52.220;9.884;2023-03-19T07:58:50;100553.13;;;11.16;100.00
16690;BME280;8458;52.220;9.884;2023-03-19T08:01:17;100554.81;;;11.22;100.00
16690;BME280;8458;52.220;9.884;2023-03-19T08:03:43;100567.88;;;11.22;100.00
16690;BME280;8458;52.220;9.884;2023-03-19T08:06:12;100565.94;;;11.27;100.00
16690;BME280;8458;52.220;9.884;2023-03-19T08:08:39;100564.84;;;11.34;100.00
16690;BME280;8458;52.220;9.884;2023-03-19T08:11:07;100558.19;;;11.40;100.00
16690;BME280;8458;52.220;9.884;2023-03-19T08:13:34;100565.72;;;11.44;100.00
16690;BME280;8458;52.220;9.884;2023-03-19T08:16:00;100557.41;;;11.50;100.00
16690;BME280;8458;52.220;9.884;2023-03-19T08:18:26;100561.00;;;11.50;100.00
16690;BME280;8458;52.220;9.884;2023-03-19T08:20:53;100563.25;;;11.53;100.00
16690;BME280;8458;52.220;9.884;2023-03-19T08:23:19;100561.00;;;11.50;100.00
16690;BME280;8458;52.220;9.884;2023-03-19T08:25:46;100553.22;;;11.52;100.00
16690;BME280;8458;52.220;9.884;2023-03-19T08:28:17;100552.72;;;11.60;100.00
16690;BME280;8458;52.220;9.884;2023-03-19T08:30:44;100549.38;;;11.63;100.00
16690;BME280;8458;52.220;9.884;2023-03-19T08:33:10;100551.06;;;11.70;100.00
16690;BME280;8458;52.220;9.884;2023-03-19T08:35:37;100556.34;;;11.76;100.00
16690;BME280;8458;52.220;9.884;2023-03-19T08:38:04;100556.06;;;11.83;100.00
16690;BME280;8458;52.220;9.884;2023-03-19T08:40:31;100553.84;;;11.90;100.00
16690;BME280;8458;52.220;9.884;2023-03-19T08:42:58;100561.66;;;11.98;100.00
16690;BME280;8458;52.220;9.884;2023-03-19T08:45:26;100552.78;;;12.01;100.00
16690;BME280;8458;52.220;9.884;2023-03-19T08:47:53;100561.09;;;12.07;100.00
16690;BME280;8458;52.220;9.884;2023-03-19T08:50:20;100560.53;;;12.10;100.00
16690;BME280;8458;52.220;9.884;2023-03-19T08:52:46;100556.66;;;12.16;100.00
16690;BME280;8458;52.220;9.884;2023-03-19T08:55:12;100551.91;;;12.27;100.00
16690;BME280;8458;52.220;9.884;2023-03-19T08:57:40;100553.03;;;12.36;100.00
16690;BME280;8458;52.220;9.884;2023-03-19T09:00:08;100568.88;;;12.46;100.00
16690;BME280;8458;52.220;9.884;2023-03-19T09:02:36;100563.31;;;12.51;100.00
16690;BME280;8458;52.220;9.884;2023-03-19T09:05:03;100565.50;;;12.54;100.00
16690;BME280;8458;52.220;9.884;2023-03-19T09:07:29;100573.84;;;12.59;100.00
16690;BME280;8458;52.220;9.884;2023-03-19T09:09:56;100565.50;;;12.64;100.00
16690;BME280;8458;52.220;9.884;2023-03-19T09:12:22;100559.91;;;12.74;100.00
16690;BME280;8458;52.220;9.884;2023-03-19T09:14:49;100562.13;;;12.83;100.00
16690;BME280;8458;52.220;9.884;2023-03-19T09:17:16;100560.69;;;12.96;100.00
16690;BME280;8458;52.220;9.884;2023-03-19T09:19:43;100571.47;;;13.13;100.00
16690;BME280;8458;52.220;9.884;2023-03-19T09:22:10;100558.59;;;13.27;100.00
16690;BME280;8458;52.220;9.884;2023-03-19T09:24:36;100564.69;;;13.39;100.00
16690;BME280;8458;52.220;9.884;2023-03-19T09:27:03;100558.44;;;13.58;100.00
16690;BME280;8458;52.220;9.884;2023-03-19T09:29:29;100559.75;;;13.71;100.00
16690;BME280;8458;52.220;9.884;2023-03-19T09:31:56;100568.88;;;13.81;100.00
16690;BME280;8458;52.220;9.884;2023-03-19T09:34:22;100564.63;;;13.94;100.00
16690;BME280;8458;52.220;9.884;2023-03-19T09:36:51;100568.69;;;14.07;96.44
16690;BME280;8458;52.220;9.884;2023-03-19T09:39:17;100571.66;;;14.21;97.12
16690;BME280;8458;52.220;9.884;2023-03-19T09:41:51;100579.59;;;14.38;93.34
16690;BME280;8458;52.220;9.884;2023-03-19T09:44:27;100577.88;;;14.42;91.44
16690;BME280;8458;52.220;9.884;2023-03-19T09:46:56;100576.06;;;14.57;90.22
16690;BME280;8458;52.220;9.884;2023-03-19T09:49:27;100579.63;;;14.67;88.33
16690;BME280;8458;52.220;9.884;2023-03-19T09:51:56;100568.03;;;14.79;87.81
16690;BME280;8458;52.220;9.884;2023-03-19T09:54:30;100575.28;;;14.80;87.97
16690;BME280;8458;52.220;9.884;2023-03-19T09:56:58;100574.63;;;14.88;86.57
16690;BME280;8458;52.220;9.884;2023-03-19T09:59:27;100576.22;;;14.95;83.29
16690;BME280;8458;52.220;9.884;2023-03-19T10:02:00;100577.31;;;14.99;83.81
16690;BME280;8458;52.220;9.884;2023-03-19T10:04:43;100580.28;;;15.08;85.09
16690;BME280;8458;52.220;9.884;2023-03-19T10:07:21;100579.31;;;15.17;85.40
16690;BME280;8458;52.220;9.884;2023-03-19T10:09:56;100580.63;;;15.25;85.27
16690;BME280;8458;52.220;9.884;2023-03-19T10:12:38;100580.81;;;15.34;83.86
16690;BME280;8458;52.220;9.884;2023-03-19T10:15:20;100582.41;;;15.40;82.70
16690;BME280;8458;52.220;9.884;2023-03-19T10:17:57;100579.59;;;15.40;79.84
16690;BME280;8458;52.220;9.884;2023-03-19T10:20:29;100592.38;;;15.46;81.33
16690;BME280;8458;52.220;9.884;2023-03-19T10:23:13;100574.63;;;15.56;78.51
16690;BME280;8458;52.220;9.884;2023-03-19T10:25:45;100584.59;;;15.62;75.04
16690;BME280;8458;52.220;9.884;2023-03-19T10:28:14;100575.53;;;15.70;73.98
16690;BME280;8458;52.220;9.884;2023-03-19T10:30:41;100571.81;;;15.75;73.55
16690;BME280;8458;52.220;9.884;2023-03-19T10:33:18;100567.34;;;15.79;73.53
16690;BME280;8458;52.220;9.884;2023-03-19T10:35:48;100569.66;;;15.91;74.76
16690;BME280;8458;52.220;9.884;2023-03-19T10:38:23;100568.69;;;16.01;75.77
16690;BME280;8458;52.220;9.884;2023-03-19T10:41:02;100572.75;;;16.08;74.00
16690;BME280;8458;52.220;9.884;2023-03-19T10:43:30;100567.28;;;16.17;75.87
16690;BME280;8458;52.220;9.884;2023-03-19T10:45:58;100565.44;;;16.26;76.00
16690;BME280;8458;52.220;9.884;2023-03-19T10:48:25;100569.59;;;16.29;75.30
16690;BME280;8458;52.220;9.884;2023-03-19T10:50:55;100565.88;;;16.34;74.44
16690;BME280;8458;52.220;9.884;2023-03-19T10:53:30;100574.19;;;16.39;74.28
16690;BME280;8458;52.220;9.884;2023-03-19T10:56:00;100584.34;;;16.35;69.76
16690;BME280;8458;52.220;9.884;2023-03-19T10:58:29;100586.22;;;16.39;69.47
16690;BME280;8458;52.220;9.884;2023-03-19T11:00:58;100579.72;;;16.44;69.67
16690;BME280;8458;52.220;9.884;2023-03-19T11:03:30;100584.16;;;16.45;69.65
16690;BME280;8458;52.220;9.884;2023-03-19T11:06:03;100584.06;;;16.50;70.55
16690;BME280;8458;52.220;9.884;2023-03-19T11:08:35;100588.50;;;16.51;69.25
16690;BME280;8458;52.220;9.884;2023-03-19T11:11:03;100585.66;;;16.56;69.12
16690;BME280;8458;52.220;9.884;2023-03-19T11:13:33;100596.63;;;16.66;67.85
16690;BME280;8458;52.220;9.884;2023-03-19T11:16:00;100586.28;;;16.67;68.09
16690;BME280;8458;52.220;9.884;2023-03-19T11:18:29;100585.88;;;16.74;68.15
16690;BME280;8458;52.220;9.884;2023-03-19T11:20:57;100582.97;;;16.79;68.90
16690;BME280;8458;52.220;9.884;2023-03-19T11:23:28;100579.84;;;16.80;68.50
16690;BME280;8458;52.220;9.884;2023-03-19T11:25:58;100591.03;;;16.66;67.69
16690;BME280;8458;52.220;9.884;2023-03-19T11:28:26;100588.16;;;16.72;67.91
16690;BME280;8458;52.220;9.884;2023-03-19T11:31:01;100588.56;;;16.79;68.63
16690;BME280;8458;52.220;9.884;2023-03-19T11:33:46;100585.63;;;16.89;68.72
16690;BME280;8458;52.220;9.884;2023-03-19T11:36:20;100581.47;;;17.00;68.26
16690;BME280;8458;52.220;9.884;2023-03-19T11:38:57;100584.88;;;16.97;67.61
16690;BME280;8458;52.220;9.884;2023-03-19T11:41:37;100580.09;;;16.84;66.69
16690;BME280;8458;52.220;9.884;2023-03-19T11:44:13;100584.25;;;17.00;69.40
16690;BME280;8458;52.220;9.884;2023-03-19T11:46:44;100572.97;;;17.06;68.17
16690;BME280;8458;52.220;9.884;2023-03-19T11:49:45;100567.75;;;17.13;66.50
16690;BME280;8458;52.220;9.884;2023-03-19T11:52:22;100567.56;;;17.23;67.75
16690;BME280;8458;52.220;9.884;2023-03-19T11:55:00;100574.41;;;17.31;66.30
16690;BME280;8458;52.220;9.884;2023-03-19T11:57:42;100576.34;;;17.30;65.88
16690;BME280;8458;52.220;9.884;2023-03-19T12:00:21;100568.50;;;17.32;65.66
16690;BME280;8458;52.220;9.884;2023-03-19T12:03:16;100575.16;;;17.09;66.47
16690;BME280;8458;52.220;9.884;2023-03-19T12:05:54;100566.75;;;17.09;65.39
16690;BME280;8458;52.220;9.884;2023-03-19T12:08:30;100567.25;;;17.11;66.42
16690;BME280;8458;52.220;9.884;2023-03-19T12:11:06;100574.72;;;17.01;65.91
16690;BME280;8458;52.220;9.884;2023-03-19T12:13:49;100576.59;;;17.06;67.37
16690;BME280;8458;52.220;9.884;2023-03-19T12:16:28;100582.41;;;17.10;66.80
16690;BME280;8458;52.220;9.884;2023-03-19T12:19:15;100574.91;;;17.19;66.51
16690;BME280;8458;52.220;9.884;2023-03-19T12:21:51;100580.94;;;17.26;66.16
16690;BME280;8458;52.220;9.884;2023-03-19T12:24:26;100582.28;;;17.29;65.15
16690;BME280;8458;52.220;9.884;2023-03-19T12:27:01;100586.00;;;17.38;65.58
16690;BME280;8458;52.220;9.884;2023-03-19T12:29:40;100581.97;;;17.30;64.58
16690;BME280;8458;52.220;9.884;2023-03-19T12:32:15;100583.84;;;17.21;64.42
16690;BME280;8458;52.220;9.884;2023-03-19T12:34:49;100576.28;;;17.08;61.83
16690;BME280;8458;52.220;9.884;2023-03-19T12:37:21;100591.84;;;17.00;62.29
16690;BME280;8458;52.220;9.884;2023-03-19T12:39:59;100590.09;;;16.90;63.04
16690;BME280;8458;52.220;9.884;2023-03-19T12:42:32;100590.09;;;16.71;63.29
16690;BME280;8458;52.220;9.884;2023-03-19T12:45:07;100586.25;;;16.53;64.21
16690;BME280;8458;52.220;9.884;2023-03-19T12:47:39;100584.06;;;16.50;64.66
16690;BME280;8458;52.220;9.884;2023-03-19T12:50:10;100588.09;;;16.44;66.10
16690;BME280;8458;52.220;9.884;2023-03-19T12:52:39;100590.44;;;16.37;65.29
16690;BME280;8458;52.220;9.884;2023-03-19T12:55:13;100582.50;;;16.44;66.41
16690;BME280;8458;52.220;9.884;2023-03-19T12:57:45;100583.75;;;16.52;65.89
16690;BME280;8458;52.220;9.884;2023-03-19T13:00:18;100575.22;;;16.43;65.48
16690;BME280;8458;52.220;9.884;2023-03-19T13:02:49;100574.63;;;16.46;66.24
16690;BME280;8458;52.220;9.884;2023-03-19T13:05:23;100574.00;;;16.49;65.39
16690;BME280;8458;52.220;9.884;2023-03-19T13:07:58;100576.09;;;16.57;65.60